Time;durP1;ratioP1;P1;durP2;ratioP2;P2;SDS_P1;SDS_P2;PMS_P1;PMS_P2;Temp;Humidity;BMP_temperature;BMP_pressure;BME280_temperature;BME280_humidity;BME280_pressure;Samples;Min_cycle;Max_cycle;Signal;HPM_P1;HPM_P2
2022/07/16 00:01:22;;;;;;;0.43;0.20;;;;;;;;;;5013469;28;20040;-81
2022/07/16 00:03:52;;;;;;;0.75;0.30;;;;;;;;;;5032393;28;20064;-81
2022/07/16 00:06:18;;;;;;;0.70;0.30;;;;;;;;;;5035245;28;20045;-80
2022/07/16 00:08:43;;;;;;;0.77;0.28;;;;;;;;;;5023104;28;20443;-81
2022/07/16 00:11:09;;;;;;;0.77;0.20;;;;;;;;;;5036116;28;20052;-82
2022/07/16 00:13:34;;;;;;;0.82;0.38;;;;;;;;;;5027223;28;20500;-78
2022/07/16 00:15:59;;;;;;;0.82;0.30;;;;;;;;;;5014640;28;20068;-81
2022/07/16 00:21:09;;;;;;;1.10;0.40;;;;;;;;;;5037773;28;20505;-81
2022/07/16 00:23:34;;;;;;;1.63;0.40;;;;;;;;;;5056960;28;20040;-82
2022/07/16 00:25:59;;;;;;;0.85;0.30;;;;;;;;;;5038845;28;20041;-79
2022/07/16 00:28:25;;;;;;;0.80;0.30;;;;;;;;;;5024679;28;22347;-79
2022/07/16 00:30:50;;;;;;;0.70;0.28;;;;;;;;;;5025677;28;20399;-80
2022/07/16 00:33:15;;;;;;;0.50;0.20;;;;;;;;;;5022798;28;20550;-79
2022/07/16 00:35:41;;;;;;;0.95;0.32;;;;;;;;;;5026049;28;20063;-79
2022/07/16 00:38:07;;;;;;;1.15;0.30;;;;;;;;;;5032596;28;20098;-80
2022/07/16 00:40:35;;;;;;;0.30;0.20;;;;;;;;;;5038690;28;20527;-80
2022/07/16 00:43:01;;;;;;;1.05;0.30;;;;;;;;;;5038487;28;20036;-79
2022/07/16 00:45:27;;;;;;;0.90;0.32;;;;;;;;;;5026262;28;20037;-79
2022/07/16 00:47:52;;;;;;;0.70;0.28;;;;;;;;;;5047595;28;20504;-79
2022/07/16 00:50:20;;;;;;;1.45;0.40;;;;;;;;;;5031459;28;20075;-79
2022/07/16 00:52:45;;;;;;;;;;;;;;;;;;5025309;28;20068;-80
2022/07/16 00:55:11;;;;;;;0.90;0.30;;;;;;;;;;5040437;28;19963;-80
2022/07/16 00:57:36;;;;;;;0.88;0.30;;;;;;;;;;5023857;28;20036;-79
2022/07/16 01:00:04;;;;;;;1.83;0.30;;;;;;;;;;5032911;28;20447;-79
2022/07/16 01:02:30;;;;;;;1.42;0.40;;;;;;;;;;5037891;28;20119;-80
2022/07/16 01:04:55;;;;;;;2.40;0.50;;;;;;;;;;5021443;28;20490;-79
2022/07/16 01:07:22;;;;;;;1.67;0.30;;;;;;;;;;5031761;28;20091;-80
2022/07/16 01:09:47;;;;;;;0.57;0.20;;;;;;;;;;5014617;28;20302;-79
2022/07/16 01:12:13;;;;;;;1.23;0.30;;;;;;;;;;5021836;28;20028;-80
2022/07/16 01:14:38;;;;;;;0.40;0.20;;;;;;;;;;5039984;28;20039;-79
2022/07/16 01:17:04;;;;;;;1.50;0.55;;;;;;;;;;5025722;28;20491;-80
2022/07/16 01:19:29;;;;;;;1.35;0.38;;;;;;;;;;5032199;28;20036;-80
2022/07/16 01:21:55;;;;;;;0.85;0.30;;;;;;;;;;5020834;28;20036;-82
2022/07/16 01:24:20;;;;;;;1.13;0.30;;;;;;;;;;5031273;28;20452;-81
2022/07/16 01:26:46;;;;;;;0.43;0.30;;;;;;;;;;5030225;28;20029;-79
2022/07/16 01:29:11;;;;;;;1.40;0.25;;;;;;;;;;5036349;28;20071;-79
2022/07/16 01:31:36;;;;;;;1.08;0.32;;;;;;;;;;5029101;28;20755;-80
2022/07/16 01:36:58;;;;;;;1.10;0.30;;;;;;;;;;5041393;28;20035;-80
2022/07/16 01:39:25;;;;;;;1.23;0.30;;;;;;;;;;5040888;28;20513;-80
2022/07/16 01:41:53;;;;;;;1.42;0.38;;;;;;;;;;5039626;28;20036;-80
2022/07/16 01:44:18;;;;;;;0.80;0.38;;;;;;;;;;5023425;28;20045;-81
2022/07/16 01:46:44;;;;;;;0.77;0.30;;;;;;;;;;5029497;28;20094;-80
2022/07/16 01:49:09;;;;;;;0.93;0.30;;;;;;;;;;5037974;28;20453;-80
2022/07/16 01:51:34;;;;;;;0.40;0.20;;;;;;;;;;5022627;28;20040;-81
2022/07/16 01:54:00;;;;;;;0.60;0.30;;;;;;;;;;5030397;28;20122;-81
2022/07/16 01:56:25;;;;;;;0.50;0.20;;;;;;;;;;5031783;28;20033;-80
2022/07/16 01:58:50;;;;;;;0.73;0.40;;;;;;;;;;5039482;28;20495;-80
2022/07/16 02:01:16;;;;;;;0.65;0.30;;;;;;;;;;5019516;28;20589;-81
2022/07/16 02:03:41;;;;;;;1.25;0.30;;;;;;;;;;5038586;28;20178;-80
2022/07/16 02:06:07;;;;;;;0.93;0.32;;;;;;;;;;5029455;28;20033;-80
2022/07/16 02:08:32;;;;;;;0.47;0.20;;;;;;;;;;5017463;28;20396;-80
2022/07/16 02:10:57;;;;;;;1.17;0.40;;;;;;;;;;5013918;28;20033;-80
2022/07/16 02:13:23;;;;;;;1.80;0.40;;;;;;;;;;5026383;28;20403;-80
2022/07/16 02:15:48;;;;;;;1.10;0.30;;;;;;;;;;5019901;28;20091;-80
2022/07/16 02:18:13;;;;;;;0.82;0.30;;;;;;;;;;5038366;28;20032;-80
2022/07/16 02:20:39;;;;;;;1.77;0.30;;;;;;;;;;5023980;28;20028;-80
2022/07/16 02:23:07;;;;;;;2.90;0.45;;;;;;;;;;5022988;28;20066;-80
2022/07/16 02:25:32;;;;;;;0.57;0.25;;;;;;;;;;5020502;28;20028;-80
2022/07/16 02:28:07;;;;;;;1.15;0.32;;;;;;;;;;5031485;28;20029;-81
2022/07/16 02:30:43;;;;;;;1.30;0.57;;;;;;;;;;5022874;28;20464;-80
2022/07/16 02:33:11;;;;;;;1.45;0.40;;;;;;;;;;5029654;28;20047;-80
2022/07/16 02:35:37;;;;;;;0.82;0.50;;;;;;;;;;5022138;28;20060;-80
2022/07/16 02:38:03;;;;;;;1.20;0.47;;;;;;;;;;5024076;28;20496;-80
2022/07/16 02:40:29;;;;;;;1.65;0.38;;;;;;;;;;5025183;28;20507;-80
2022/07/16 02:42:55;;;;;;;1.75;0.40;;;;;;;;;;5039109;28;20041;-80
2022/07/16 02:45:20;;;;;;;0.40;0.30;;;;;;;;;;5030027;28;20041;-81
2022/07/16 02:47:45;;;;;;;0.30;0.25;;;;;;;;;;5024357;28;20127;-80
2022/07/16 02:50:11;;;;;;;1.48;0.40;;;;;;;;;;5023449;28;20049;-82
2022/07/16 02:52:36;;;;;;;1.00;0.32;;;;;;;;;;5028753;28;20037;-80
2022/07/16 02:55:03;;;;;;;0.70;0.30;;;;;;;;;;5030859;28;20045;-80
2022/07/16 02:57:29;;;;;;;0.93;0.40;;;;;;;;;;5035104;28;20037;-80
2022/07/16 02:59:54;;;;;;;0.65;0.28;;;;;;;;;;5015982;28;20044;-80
2022/07/16 03:02:22;;;;;;;0.45;0.30;;;;;;;;;;5021887;28;20514;-80
2022/07/16 03:04:48;;;;;;;1.95;0.40;;;;;;;;;;5024543;28;20041;-81
2022/07/16 03:07:13;;;;;;;0.70;0.30;;;;;;;;;;5018482;28;20033;-79
2022/07/16 03:09:39;;;;;;;1.55;0.30;;;;;;;;;;5030142;28;20040;-80
2022/07/16 03:12:08;;;;;;;0.77;0.40;;;;;;;;;;5026050;28;20511;-81
2022/07/16 03:14:33;;;;;;;1.00;0.40;;;;;;;;;;5018167;28;20102;-79
2022/07/16 03:16:58;;;;;;;1.08;0.40;;;;;;;;;;5017811;28;20112;-81
2022/07/16 03:19:24;;;;;;;1.45;0.35;;;;;;;;;;5028290;28;20048;-80
2022/07/16 03:21:49;;;;;;;0.80;0.38;;;;;;;;;;5033956;28;20102;-80
2022/07/16 03:24:14;;;;;;;1.70;0.50;;;;;;;;;;5029378;28;20098;-80
2022/07/16 03:26:40;;;;;;;3.30;0.50;;;;;;;;;;5023328;28;20523;-80
2022/07/16 03:29:05;;;;;;;1.35;0.40;;;;;;;;;;5024904;28;20476;-81
2022/07/16 03:31:30;;;;;;;1.45;0.55;;;;;;;;;;5036396;28;20129;-80
2022/07/16 03:33:56;;;;;;;1.10;0.47;;;;;;;;;;5029309;28;20090;-81
2022/07/16 03:36:26;;;;;;;1.63;0.50;;;;;;;;;;5029146;28;20039;-80
2022/07/16 03:39:07;;;;;;;1.63;0.43;;;;;;;;;;5039767;28;20495;-81
2022/07/16 03:41:34;;;;;;;1.58;0.57;;;;;;;;;;5022757;28;20034;-80
2022/07/16 03:44:00;;;;;;;;;;;;;;;;;;5022020;28;20044;-80
2022/07/16 03:46:25;;;;;;;1.17;0.50;;;;;;;;;;5029515;28;20668;-80
2022/07/16 03:48:51;;;;;;;1.17;0.50;;;;;;;;;;5028911;28;20040;-80
2022/07/16 03:51:16;;;;;;;0.63;0.40;;;;;;;;;;5027626;28;20496;-81
2022/07/16 03:53:42;;;;;;;0.80;0.43;;;;;;;;;;5028911;28;20032;-80
2022/07/16 03:56:08;;;;;;;1.20;0.60;;;;;;;;;;5027402;28;20065;-80
2022/07/16 03:58:33;;;;;;;0.98;0.40;;;;;;;;;;5036449;28;20444;-80
2022/07/16 04:00:59;;;;;;;1.50;0.45;;;;;;;;;;5028367;28;20052;-80
2022/07/16 04:03:24;;;;;;;0.77;0.40;;;;;;;;;;5036253;28;20565;-82
2022/07/16 04:05:50;;;;;;;0.85;0.40;;;;;;;;;;5018178;28;20488;-80
2022/07/16 04:08:16;;;;;;;1.20;0.50;;;;;;;;;;5031901;28;20059;-79
2022/07/16 04:10:41;;;;;;;1.23;0.47;;;;;;;;;;5033520;28;20090;-80
2022/07/16 04:13:06;;;;;;;0.80;0.40;;;;;;;;;;5029544;28;20048;-80
2022/07/16 04:15:32;;;;;;;0.57;0.32;;;;;;;;;;5028444;28;20087;-80
2022/07/16 04:17:57;;;;;;;0.77;0.35;;;;;;;;;;5020390;28;20041;-81
2022/07/16 04:20:23;;;;;;;1.15;0.50;;;;;;;;;;5018174;28;20040;-81
2022/07/16 04:22:48;;;;;;;0.93;0.40;;;;;;;;;;5019512;28;20037;-80
2022/07/16 04:25:14;;;;;;;0.80;0.43;;;;;;;;;;5023986;28;20071;-80
2022/07/16 04:27:40;;;;;;;0.82;0.40;;;;;;;;;;5019546;28;20117;-80
2022/07/16 04:30:07;;;;;;;1.60;0.43;;;;;;;;;;5015974;28;20045;-80
2022/07/16 04:32:34;;;;;;;1.02;0.40;;;;;;;;;;5019953;28;20067;-80
2022/07/16 04:34:59;;;;;;;1.23;0.47;;;;;;;;;;5023416;28;20090;-80
2022/07/16 04:37:25;;;;;;;1.20;0.50;;;;;;;;;;5017627;28;20550;-80
2022/07/16 04:39:53;;;;;;;1.33;0.40;;;;;;;;;;5022627;28;20033;-80
2022/07/16 04:42:19;;;;;;;1.02;0.40;;;;;;;;;;5035706;28;20118;-80
2022/07/16 04:44:44;;;;;;;0.47;0.30;;;;;;;;;;5021277;28;20033;-80
2022/07/16 04:47:10;;;;;;;2.10;0.47;;;;;;;;;;5026948;28;20033;-80
2022/07/16 04:49:35;;;;;;;0.70;0.30;;;;;;;;;;5034951;28;20896;-80
2022/07/16 04:52:01;;;;;;;1.83;0.52;;;;;;;;;;5027807;28;20049;-80
2022/07/16 04:54:26;;;;;;;0.85;0.40;;;;;;;;;;5023231;28;20033;-79
2022/07/16 04:56:52;;;;;;;1.38;0.40;;;;;;;;;;5033266;28;20369;-80
2022/07/16 04:59:17;;;;;;;1.10;0.38;;;;;;;;;;5025188;28;20053;-80
2022/07/16 05:01:43;;;;;;;1.88;0.47;;;;;;;;;;5027350;28;20037;-80
2022/07/16 05:04:08;;;;;;;1.73;0.43;;;;;;;;;;5020111;28;20488;-80
2022/07/16 05:06:33;;;;;;;2.63;0.40;;;;;;;;;;5027414;28;20297;-81
2022/07/16 05:09:01;;;;;;;1.42;0.38;;;;;;;;;;5031965;28;20132;-80
2022/07/16 05:11:27;;;;;;;1.08;0.30;;;;;;;;;;5021461;28;20116;-81
2022/07/16 05:13:53;;;;;;;0.93;0.35;;;;;;;;;;5023142;28;20074;-80
2022/07/16 05:16:19;;;;;;;1.80;0.40;;;;;;;;;;5023107;28;20032;-80
2022/07/16 05:18:45;;;;;;;1.10;0.35;;;;;;;;;;5024579;28;20111;-81
2022/07/16 05:21:10;;;;;;;1.52;0.50;;;;;;;;;;5031534;28;20702;-80
2022/07/16 05:23:36;;;;;;;1.48;0.43;;;;;;;;;;5024813;28;20051;-81
2022/07/16 05:26:01;;;;;;;0.50;0.30;;;;;;;;;;5024932;28;20052;-79
2022/07/16 05:28:26;;;;;;;0.80;0.30;;;;;;;;;;5027395;28;20047;-80
2022/07/16 05:30:52;;;;;;;1.45;0.40;;;;;;;;;;5034035;28;20179;-80
2022/07/16 05:33:17;;;;;;;1.00;0.30;;;;;;;;;;5031906;28;20341;-81
2022/07/16 05:35:43;;;;;;;0.98;0.40;;;;;;;;;;5031755;28;20560;-80
2022/07/16 05:38:08;;;;;;;1.73;0.60;;;;;;;;;;5023635;28;20488;-80
2022/07/16 05:40:33;;;;;;;1.27;0.40;;;;;;;;;;5041203;28;20041;-80
2022/07/16 05:42:59;;;;;;;3.60;0.88;;;;;;;;;;5031859;28;20035;-80
2022/07/16 05:45:24;;;;;;;1.70;0.50;;;;;;;;;;5046148;28;20037;-80
2022/07/16 05:47:49;;;;;;;1.17;0.50;;;;;;;;;;5027953;28;20040;-80
2022/07/16 05:50:15;;;;;;;1.98;0.43;;;;;;;;;;5028310;28;20036;-80
2022/07/16 05:52:40;;;;;;;1.60;0.63;;;;;;;;;;5028171;28;20068;-81
2022/07/16 05:55:06;;;;;;;1.35;0.52;;;;;;;;;;5039417;28;20063;-80
2022/07/16 05:57:31;;;;;;;1.23;0.47;;;;;;;;;;5030199;28;20930;-81
2022/07/16 05:59:57;;;;;;;1.33;0.52;;;;;;;;;;5040211;28;20087;-81
2022/07/16 06:02:22;;;;;;;1.70;0.70;;;;;;;;;;5022283;28;20063;-81
2022/07/16 06:04:48;;;;;;;2.10;0.50;;;;;;;;;;5027204;28;20586;-81
2022/07/16 06:07:13;;;;;;;1.27;0.60;;;;;;;;;;5023003;28;20029;-80
2022/07/16 06:09:38;;;;;;;3.42;0.70;;;;;;;;;;5021945;28;20495;-81
2022/07/16 06:12:04;;;;;;;2.15;0.50;;;;;;;;;;5022930;28;20064;-81
2022/07/16 06:14:29;;;;;;;2.53;0.80;;;;;;;;;;5027890;28;20450;-81
2022/07/16 06:16:55;;;;;;;1.48;0.70;;;;;;;;;;5029278;28;20503;-81
2022/07/16 06:19:20;;;;;;;3.67;0.65;;;;;;;;;;5021571;28;20397;-81
2022/07/16 06:21:46;;;;;;;1.35;0.60;;;;;;;;;;5024294;28;20108;-81
2022/07/16 06:24:11;;;;;;;1.50;0.60;;;;;;;;;;5038231;28;20041;-80
2022/07/16 06:26:46;;;;;;;1.23;0.52;;;;;;;;;;5038140;28;20561;-81
2022/07/16 06:29:12;;;;;;;1.48;0.70;;;;;;;;;;5017939;28;20037;-82
2022/07/16 06:31:38;;;;;;;2.10;0.73;;;;;;;;;;5016659;28;20056;-81
2022/07/16 06:34:03;;;;;;;1.45;0.63;;;;;;;;;;5027444;28;20631;-80
2022/07/16 06:36:28;;;;;;;2.67;0.90;;;;;;;;;;5029093;28;20049;-80
2022/07/16 06:38:54;;;;;;;1.27;0.70;;;;;;;;;;5035301;28;20036;-80
2022/07/16 06:41:19;;;;;;;2.35;0.98;;;;;;;;;;5037805;28;20040;-81
2022/07/16 06:43:44;;;;;;;2.40;0.80;;;;;;;;;;5025297;28;20029;-80
2022/07/16 06:46:10;;;;;;;2.70;1.02;;;;;;;;;;5026159;28;20037;-81
2022/07/16 06:48:35;;;;;;;3.45;1.10;;;;;;;;;;5028309;28;20581;-80
2022/07/16 06:51:00;;;;;;;2.95;1.38;;;;;;;;;;5027924;28;20040;-80
2022/07/16 06:53:26;;;;;;;2.30;1.00;;;;;;;;;;5038905;28;20036;-80
2022/07/16 06:55:51;;;;;;;2.97;1.30;;;;;;;;;;5030073;28;20388;-81
2022/07/16 06:58:16;;;;;;;3.00;1.30;;;;;;;;;;5022234;28;20056;-81
2022/07/16 07:00:42;;;;;;;4.07;1.25;;;;;;;;;;5027219;28;20119;-80
2022/07/16 07:03:07;;;;;;;3.10;1.23;;;;;;;;;;5031755;28;20047;-82
2022/07/16 07:05:32;;;;;;;3.65;1.50;;;;;;;;;;5021046;28;20116;-80
2022/07/16 07:07:58;;;;;;;3.45;1.58;;;;;;;;;;5027124;28;20036;-81
2022/07/16 07:10:23;;;;;;;2.58;1.30;;;;;;;;;;5021484;28;20036;-82
2022/07/16 07:12:49;;;;;;;2.63;1.45;;;;;;;;;;5024500;28;20968;-81
2022/07/16 07:15:14;;;;;;;3.00;1.50;;;;;;;;;;5024853;28;20036;-82
2022/07/16 07:17:39;;;;;;;3.58;1.40;;;;;;;;;;5025542;28;20028;-81
2022/07/16 07:20:07;;;;;;;5.32;1.50;;;;;;;;;;5029962;28;20039;-83
2022/07/16 07:22:32;;;;;;;5.30;1.67;;;;;;;;;;5030739;28;20040;-83
2022/07/16 07:24:58;;;;;;;2.20;1.10;;;;;;;;;;5037834;28;20036;-82
2022/07/16 07:27:23;;;;;;;2.15;1.13;;;;;;;;;;5034528;28;20040;-81
2022/07/16 07:29:48;;;;;;;2.88;1.42;;;;;;;;;;5029386;28;20043;-81
2022/07/16 07:32:14;;;;;;;2.88;1.50;;;;;;;;;;5017124;28;20442;-81
2022/07/16 07:34:39;;;;;;;2.63;1.20;;;;;;;;;;5022930;28;20036;-80
2022/07/16 07:37:05;;;;;;;2.47;1.17;;;;;;;;;;5034260;28;20041;-81
2022/07/16 07:39:30;;;;;;;2.53;1.02;;;;;;;;;;5037870;28;20411;-81
2022/07/16 07:41:56;;;;;;;2.22;1.08;;;;;;;;;;5020501;28;20044;-81
2022/07/16 07:44:22;;;;;;;2.80;1.20;;;;;;;;;;5023202;28;20131;-82
2022/07/16 07:46:47;;;;;;;2.20;1.08;;;;;;;;;;5028159;28;20124;-81
2022/07/16 07:49:12;;;;;;;2.05;1.00;;;;;;;;;;5028043;28;20492;-81
2022/07/16 07:51:38;;;;;;;3.20;1.30;;;;;;;;;;5027496;28;20428;-81
2022/07/16 07:54:03;;;;;;;2.55;1.25;;;;;;;;;;5034997;28;20047;-81
2022/07/16 07:56:29;;;;;;;2.90;1.17;;;;;;;;;;5016600;28;20051;-81
2022/07/16 07:58:54;;;;;;;1.88;0.90;;;;;;;;;;5027917;28;20033;-83
2022/07/16 08:01:19;;;;;;;2.60;1.02;;;;;;;;;;5038414;28;20045;-80
2022/07/16 08:03:44;;;;;;;1.65;0.73;;;;;;;;;;5012567;28;20050;-80
2022/07/16 08:06:10;;;;;;;2.50;0.98;;;;;;;;;;5011604;28;20037;-80
2022/07/16 08:08:35;;;;;;;1.98;0.98;;;;;;;;;;5027931;28;20040;-80
2022/07/16 08:11:01;;;;;;;2.83;0.90;;;;;;;;;;5017209;28;20044;-80
2022/07/16 08:13:26;;;;;;;2.22;0.80;;;;;;;;;;5024449;28;20397;-81
2022/07/16 08:15:51;;;;;;;2.15;0.80;;;;;;;;;;5028838;28;20033;-81
2022/07/16 08:18:17;;;;;;;1.50;0.70;;;;;;;;;;5026435;28;20129;-82
2022/07/16 08:20:42;;;;;;;2.53;0.85;;;;;;;;;;5018463;28;20029;-81
2022/07/16 08:23:07;;;;;;;1.10;0.55;;;;;;;;;;5027377;28;20044;-81
2022/07/16 08:25:45;;;;;;;1.65;0.70;;;;;;;;;;5005637;28;20123;-82
2022/07/16 08:28:13;;;;;;;1.92;0.75;;;;;;;;;;5028728;28;20511;-81
2022/07/16 08:30:39;;;;;;;2.08;0.80;;;;;;;;;;5019960;28;20108;-81
2022/07/16 08:33:04;;;;;;;1.38;0.60;;;;;;;;;;5036614;28;20474;-81
2022/07/16 08:35:29;;;;;;;1.65;0.50;;;;;;;;;;5026374;28;20116;-81
2022/07/16 08:37:55;;;;;;;1.55;0.60;;;;;;;;;;5034097;28;20040;-81
2022/07/16 08:40:22;;;;;;;1.63;0.63;;;;;;;;;;5021614;28;20033;-81
2022/07/16 08:42:49;;;;;;;1.33;0.57;;;;;;;;;;5038463;28;20044;-81
2022/07/16 08:45:16;;;;;;;2.05;0.45;;;;;;;;;;5036916;28;20040;-80
2022/07/16 08:47:42;;;;;;;1.52;0.55;;;;;;;;;;5030745;28;20299;-81
2022/07/16 08:50:10;;;;;;;1.27;0.43;;;;;;;;;;5038858;28;20063;-81
2022/07/16 08:52:44;;;;;;;1.08;0.40;;;;;;;;;;5021021;28;20513;-81
2022/07/16 08:55:10;;;;;;;2.00;0.50;;;;;;;;;;5023337;28;20036;-80
2022/07/16 08:57:37;;;;;;;1.83;0.60;;;;;;;;;;5004829;28;20194;-81
2022/07/16 09:00:04;;;;;;;1.10;0.40;;;;;;;;;;5013621;28;20052;-81
2022/07/16 09:02:29;;;;;;;1.67;0.47;;;;;;;;;;5037966;28;20500;-81
2022/07/16 09:04:57;;;;;;;0.60;0.30;;;;;;;;;;5021810;28;20039;-81
2022/07/16 09:07:22;;;;;;;1.65;0.40;;;;;;;;;;5040565;28;20036;-81
2022/07/16 09:09:48;;;;;;;0.98;0.30;;;;;;;;;;5018066;28;20084;-82
2022/07/16 09:12:37;;;;;;;0.98;0.30;;;;;;;;;;5035179;28;20056;-81
2022/07/16 09:15:31;;;;;;;0.60;0.30;;;;;;;;;;5037254;28;20115;-81
2022/07/16 09:18:19;;;;;;;1.42;0.30;;;;;;;;;;5036490;28;20030;-80
2022/07/16 09:20:47;;;;;;;1.67;0.30;;;;;;;;;;5030815;28;20039;-82
2022/07/16 09:23:22;;;;;;;1.95;0.45;;;;;;;;;;5038750;28;20095;-81
2022/07/16 09:25:50;;;;;;;1.33;0.30;;;;;;;;;;5039510;28;20112;-82
2022/07/16 09:28:15;;;;;;;0.85;0.30;;;;;;;;;;5023098;28;20037;-81
2022/07/16 09:30:41;;;;;;;0.70;0.20;;;;;;;;;;5023665;28;20395;-82
2022/07/16 09:33:15;;;;;;;0.82;0.30;;;;;;;;;;5027935;28;20377;-82
2022/07/16 09:35:41;;;;;;;2.45;0.30;;;;;;;;;;5030132;28;20037;-81
2022/07/16 09:38:09;;;;;;;1.48;0.40;;;;;;;;;;5021362;28;20037;-81
2022/07/16 09:40:42;;;;;;;0.70;0.20;;;;;;;;;;5017564;28;20033;-81
2022/07/16 09:43:13;;;;;;;1.05;0.30;;;;;;;;;;5033348;28;20040;-82
2022/07/16 09:45:40;;;;;;;0.73;0.20;;;;;;;;;;5045907;28;20519;-82
2022/07/16 09:48:21;;;;;;;0.60;0.30;;;;;;;;;;5038337;28;20060;-82
2022/07/16 09:50:46;;;;;;;0.93;0.40;;;;;;;;;;5046545;28;20123;-82
2022/07/16 09:53:19;;;;;;;0.73;0.28;;;;;;;;;;5025284;28;20128;-82
2022/07/16 09:56:07;;;;;;;0.82;0.30;;;;;;;;;;5035262;27;20907;-82
2022/07/16 09:58:34;;;;;;;0.90;0.30;;;;;;;;;;5022358;28;20452;-82
2022/07/16 10:01:00;;;;;;;0.47;0.20;;;;;;;;;;5032618;28;20142;-81
2022/07/16 10:03:26;;;;;;;0.57;0.20;;;;;;;;;;5016391;28;20510;-82
2022/07/16 10:05:51;;;;;;;0.60;0.20;;;;;;;;;;5028813;28;20037;-82
2022/07/16 10:08:17;;;;;;;2.58;0.50;;;;;;;;;;5018158;28;20041;-81
2022/07/16 10:10:43;;;;;;;1.27;0.30;;;;;;;;;;5029496;28;20029;-82
2022/07/16 10:13:09;;;;;;;1.10;0.38;;;;;;;;;;5029683;28;20033;-82
2022/07/16 10:15:35;;;;;;;0.55;0.10;;;;;;;;;;5029300;28;20050;-82
2022/07/16 10:18:00;;;;;;;0.45;0.15;;;;;;;;;;5014886;28;20049;-82
2022/07/16 10:20:26;;;;;;;1.38;0.30;;;;;;;;;;5021216;28;20063;-82
2022/07/16 10:22:51;;;;;;;1.40;0.20;;;;;;;;;;5016489;28;20037;-81
2022/07/16 10:25:25;;;;;;;1.17;0.30;;;;;;;;;;5029319;28;20037;-81
2022/07/16 10:27:51;;;;;;;0.88;0.22;;;;;;;;;;5028850;28;20042;-82
2022/07/16 10:30:27;;;;;;;1.70;0.40;;;;;;;;;;5028029;28;20148;-81
2022/07/16 10:32:58;;;;;;;1.50;0.50;;;;;;;;;;5014979;28;20332;-81
2022/07/16 10:35:37;;;;;;;0.60;0.20;;;;;;;;;;5033135;28;20567;-82
2022/07/16 10:38:09;;;;;;;0.82;0.20;;;;;;;;;;5021434;28;20029;-80
2022/07/16 10:40:37;;;;;;;1.00;0.30;;;;;;;;;;5030245;28;20057;-82
2022/07/16 10:43:22;;;;;;;0.40;0.10;;;;;;;;;;5021754;28;20037;-81
2022/07/16 10:45:56;;;;;;;0.80;0.25;;;;;;;;;;5013840;28;20041;-82
2022/07/16 10:48:37;;;;;;;1.83;0.30;;;;;;;;;;5028717;28;20063;-81
2022/07/16 10:51:18;;;;;;;2.83;0.38;;;;;;;;;;5031693;28;20041;-81
2022/07/16 10:54:01;;;;;;;1.05;0.28;;;;;;;;;;5014173;28;20034;-81
2022/07/16 10:56:35;;;;;;;0.70;0.25;;;;;;;;;;5033452;28;20490;-80
2022/07/16 10:59:12;;;;;;;0.73;0.30;;;;;;;;;;5028893;28;20029;-82
2022/07/16 11:01:39;;;;;;;0.80;0.28;;;;;;;;;;5016096;28;20194;-82
2022/07/16 11:04:05;;;;;;;;;;;;;;;;;;5022572;28;20041;-77
2022/07/16 11:06:32;;;;;;;1.15;0.30;;;;;;;;;;5003260;28;20410;-77
2022/07/16 11:08:59;;;;;;;3.28;0.40;;;;;;;;;;5000079;28;20042;-78
2022/07/16 11:11:39;;;;;;;2.10;0.30;;;;;;;;;;5013857;28;20660;-78
2022/07/16 11:14:05;;;;;;;1.00;0.40;;;;;;;;;;5017374;28;20143;-78
2022/07/16 11:16:31;;;;;;;1.35;0.50;;;;;;;;;;5015297;28;20076;-78
2022/07/16 11:19:01;;;;;;;0.55;0.17;;;;;;;;;;5015018;28;20025;-79
2022/07/16 11:21:26;;;;;;;1.17;0.30;;;;;;;;;;5003211;28;20486;-79
2022/07/16 11:23:56;;;;;;;1.08;0.30;;;;;;;;;;5005807;28;20033;-78
2022/07/16 11:26:22;;;;;;;1.40;0.20;;;;;;;;;;5016259;28;20551;-80
2022/07/16 11:28:56;;;;;;;1.52;0.30;;;;;;;;;;5001964;28;20033;-84
2022/07/16 11:31:28;;;;;;;1.35;0.50;;;;;;;;;;5006495;28;20033;-80
2022/07/16 11:33:59;;;;;;;0.25;0.10;;;;;;;;;;5016144;28;20042;-81
2022/07/16 11:36:32;;;;;;;1.05;0.20;;;;;;;;;;5013376;28;20049;-80
2022/07/16 11:39:03;;;;;;;2.10;0.47;;;;;;;;;;5007728;28;20038;-80
2022/07/16 11:41:31;;;;;;;0.77;0.30;;;;;;;;;;5014419;28;20367;-78
2022/07/16 11:43:56;;;;;;;0.85;0.22;;;;;;;;;;5014938;28;20040;-79
2022/07/16 11:46:26;;;;;;;1.58;0.20;;;;;;;;;;5014156;28;20037;-78
2022/07/16 11:48:52;;;;;;;0.65;0.20;;;;;;;;;;5004024;28;20041;-78
2022/07/16 11:51:18;;;;;;;1.83;0.40;;;;;;;;;;5011847;28;20076;-78
2022/07/16 11:53:53;;;;;;;2.92;0.30;;;;;;;;;;5016429;28;20112;-78
2022/07/16 11:56:33;;;;;;;2.13;0.30;;;;;;;;;;5001051;28;20044;-77
2022/07/16 11:58:59;;;;;;;1.88;0.30;;;;;;;;;;4998181;28;20048;-77
2022/07/16 12:01:25;;;;;;;0.55;0.17;;;;;;;;;;5017983;28;20046;-77
2022/07/16 12:03:54;;;;;;;1.17;0.38;;;;;;;;;;4998214;28;20295;-77
2022/07/16 12:06:20;;;;;;;1.27;0.30;;;;;;;;;;4993466;28;20038;-78
2022/07/16 12:08:55;;;;;;;0.98;0.20;;;;;;;;;;4985029;28;20026;-78
2022/07/16 12:11:32;;;;;;;1.52;0.35;;;;;;;;;;5013334;28;20053;-77
2022/07/16 12:13:57;;;;;;;1.55;0.17;;;;;;;;;;5016270;28;20766;-79
2022/07/16 12:16:23;;;;;;;1.50;0.30;;;;;;;;;;4982825;28;20037;-79
2022/07/16 12:19:01;;;;;;;1.15;0.38;;;;;;;;;;4999293;28;20041;-79
2022/07/16 12:21:28;;;;;;;0.65;0.17;;;;;;;;;;5012483;28;20037;-77
2022/07/16 12:23:54;;;;;;;0.40;0.20;;;;;;;;;;4999418;28;20037;-77
2022/07/16 12:26:36;;;;;;;0.70;0.20;;;;;;;;;;5013535;28;20084;-78
2022/07/16 12:29:04;;;;;;;1.85;0.50;;;;;;;;;;5007027;28;20096;-77
2022/07/16 12:31:31;;;;;;;1.23;0.30;;;;;;;;;;5013230;28;20063;-77
2022/07/16 12:33:59;;;;;;;0.95;0.30;;;;;;;;;;5014027;28;20042;-77
2022/07/16 12:36:38;;;;;;;1.65;0.28;;;;;;;;;;5015788;28;20064;-78
2022/07/16 12:39:06;;;;;;;1.33;0.28;;;;;;;;;;5005481;28;20030;-77
2022/07/16 12:41:42;;;;;;;1.20;0.30;;;;;;;;;;5005690;28;20029;-78
2022/07/16 12:44:09;;;;;;;0.90;0.28;;;;;;;;;;5000388;28;20033;-77
2022/07/16 12:46:41;;;;;;;0.95;0.20;;;;;;;;;;5014364;28;20029;-78
2022/07/16 12:49:13;;;;;;;1.10;0.30;;;;;;;;;;5007830;28;20044;-78
2022/07/16 12:51:43;;;;;;;0.65;0.30;;;;;;;;;;5000661;28;20057;-78
2022/07/16 12:54:11;;;;;;;0.80;0.20;;;;;;;;;;5007479;28;20059;-78
2022/07/16 12:59:22;;;;;;;1.00;0.20;;;;;;;;;;5016586;28;20022;-78
2022/07/16 13:01:50;;;;;;;2.47;0.30;;;;;;;;;;5005008;28;20041;-78
2022/07/16 13:04:17;;;;;;;1.08;0.30;;;;;;;;;;4997214;28;20426;-78
2022/07/16 13:06:43;;;;;;;0.40;0.10;;;;;;;;;;5012252;28;20125;-79
2022/07/16 13:09:09;;;;;;;1.45;0.38;;;;;;;;;;4998572;28;20041;-78
2022/07/16 13:11:35;;;;;;;0.82;0.30;;;;;;;;;;4986935;28;20030;-79
2022/07/16 13:14:02;;;;;;;0.95;0.30;;;;;;;;;;4992948;28;20044;-77
2022/07/16 13:16:27;;;;;;;1.25;0.30;;;;;;;;;;5008452;28;20030;-77
2022/07/16 13:18:55;;;;;;;0.77;0.20;;;;;;;;;;4994835;28;20404;-77
2022/07/16 13:21:20;;;;;;;2.15;0.30;;;;;;;;;;5010633;28;20491;-78
2022/07/16 13:23:46;;;;;;;1.15;0.38;;;;;;;;;;4998607;28;20144;-78
2022/07/16 13:26:13;;;;;;;1.58;0.25;;;;;;;;;;5008767;28;20041;-78
2022/07/16 13:28:38;;;;;;;1.15;0.20;;;;;;;;;;4995148;28;20030;-78
2022/07/16 13:31:04;;;;;;;1.70;0.40;;;;;;;;;;5013104;28;20037;-78
2022/07/16 13:33:30;;;;;;;1.27;0.35;;;;;;;;;;5012316;28;20475;-78
2022/07/16 13:35:56;;;;;;;1.30;0.32;;;;;;;;;;5001740;28;20038;-78
2022/07/16 13:38:22;;;;;;;1.05;0.30;;;;;;;;;;4998331;28;20067;-78
2022/07/16 13:40:47;;;;;;;1.13;0.20;;;;;;;;;;4994344;28;20038;-78
2022/07/16 13:43:13;;;;;;;0.70;0.38;;;;;;;;;;5005244;28;20034;-78
2022/07/16 13:45:38;;;;;;;0.90;0.20;;;;;;;;;;5011656;28;20040;-78
2022/07/16 13:48:04;;;;;;;1.88;0.40;;;;;;;;;;5005671;28;20030;-79
2022/07/16 13:50:30;;;;;;;1.27;0.32;;;;;;;;;;5012910;28;20124;-80
2022/07/16 13:52:56;;;;;;;1.02;0.20;;;;;;;;;;4996767;28;20046;-78
2022/07/16 13:55:21;;;;;;;0.85;0.17;;;;;;;;;;5003205;28;20041;-80
2022/07/16 14:00:35;;;;;;;1.55;0.30;;;;;;;;;;5014796;28;20412;-77
2022/07/16 14:03:00;;;;;;;0.55;0.10;;;;;;;;;;5011551;28;20026;-79
2022/07/16 14:05:25;;;;;;;2.42;0.40;;;;;;;;;;5011906;28;20386;-77
2022/07/16 14:07:51;;;;;;;0.80;0.20;;;;;;;;;;4996374;28;20073;-78
2022/07/16 14:10:16;;;;;;;0.73;0.20;;;;;;;;;;4999149;28;20034;-78
2022/07/16 14:12:43;;;;;;;1.15;0.40;;;;;;;;;;5013458;28;20108;-78
2022/07/16 14:15:09;;;;;;;2.47;0.50;;;;;;;;;;5012195;28;20065;-78
2022/07/16 14:17:39;;;;;;;1.40;0.40;;;;;;;;;;5009516;28;20045;-77
2022/07/16 14:20:05;;;;;;;1.30;0.25;;;;;;;;;;5012514;28;20037;-77
2022/07/16 14:22:31;;;;;;;1.90;0.30;;;;;;;;;;5013443;28;20030;-78
2022/07/16 14:24:59;;;;;;;1.77;0.50;;;;;;;;;;5008972;28;20103;-78
2022/07/16 14:27:24;;;;;;;2.25;0.28;;;;;;;;;;5010229;28;20038;-78
2022/07/16 14:29:49;;;;;;;0.68;0.20;;;;;;;;;;4997560;28;20041;-77
2022/07/16 14:32:15;;;;;;;4.53;0.50;;;;;;;;;;4999435;28;20067;-77
2022/07/16 14:34:41;;;;;;;0.65;0.10;;;;;;;;;;5013159;28;20042;-79
2022/07/16 14:37:06;;;;;;;1.27;0.25;;;;;;;;;;4996221;28;20034;-77
2022/07/16 14:39:32;;;;;;;1.48;0.20;;;;;;;;;;5009727;28;20033;-78
2022/07/16 14:41:57;;;;;;;1.50;0.30;;;;;;;;;;5009548;28;20104;-78
2022/07/16 14:44:22;;;;;;;2.58;0.25;;;;;;;;;;5014214;28;20026;-78
2022/07/16 14:46:48;;;;;;;1.20;0.25;;;;;;;;;;4997845;28;20810;-78
2022/07/16 14:49:13;;;;;;;1.02;0.25;;;;;;;;;;5015155;28;20492;-77
2022/07/16 14:51:38;;;;;;;1.25;0.20;;;;;;;;;;5000211;28;20511;-78
2022/07/16 14:54:04;;;;;;;2.35;0.30;;;;;;;;;;5000322;28;20490;-77